createdAt,value
2022-08-02T00:10:17.884Z,18.642
2022-08-02T00:25:20.137Z,18.323
2022-08-02T00:40:22.354Z,18.228
2022-08-02T00:55:31.215Z,18.664
2022-08-02T01:10:33.844Z,20.594
2022-08-02T01:25:36.017Z,22.448
2022-08-02T01:40:38.327Z,23.457
2022-08-02T01:55:57.916Z,25.714
2022-08-02T02:12:11.630Z,28.135
2022-08-02T02:27:16.001Z,29.878
2022-08-02T02:42:18.420Z,29.15
2022-08-02T02:57:20.780Z,29.122
2022-08-02T03:12:26.885Z,30.456
2022-08-02T03:27:32.913Z,32.13
2022-08-02T03:42:35.191Z,33.86
2022-08-02T03:57:37.451Z,34.941
2022-08-02T04:12:39.711Z,38.252
2022-08-02T04:27:50.364Z,39.176
2022-08-02T04:43:18.283Z,41.268
2022-08-02T04:58:39.302Z,40.373
2022-08-02T05:13:59.313Z,43.352
2022-08-02T05:29:01.927Z,44.749
2022-08-02T05:44:04.145Z,41.932
2022-08-02T05:59:06.553Z,46.826
2022-08-02T06:14:08.752Z,51.395
2022-08-02T06:29:10.937Z,43.216
2022-08-02T06:44:46.012Z,42.69
2022-08-02T06:59:53.249Z,41.228
2022-08-02T07:14:55.463Z,40.882
2022-08-02T07:29:57.798Z,41.291
2022-08-02T07:45:00.073Z,47.221
2022-08-02T08:00:02.462Z,39.018
2022-08-02T08:15:04.831Z,47.723
2022-08-02T08:30:07.037Z,48.35
2022-08-02T08:45:09.268Z,43.653
2022-08-02T09:00:11.527Z,38.002
2022-08-02T09:15:16.008Z,42.318
2022-08-02T09:30:18.572Z,41.111
2022-08-02T09:45:20.801Z,45.583
2022-08-02T10:00:43.378Z,45.319
2022-08-02T10:15:54.294Z,42.986
2022-08-02T10:30:56.501Z,44.623
2022-08-02T10:45:58.810Z,44.149
2022-08-02T11:01:01.213Z,46.398
2022-08-02T11:16:07.752Z,44.601
2022-08-02T11:31:13.544Z,43.231
2022-08-02T11:46:15.858Z,42.382
2022-08-02T12:01:18.117Z,43.575
2022-08-02T12:16:20.335Z,51.181
2022-08-02T12:31:22.716Z,44.419
2022-08-02T12:46:24.911Z,46.219
2022-08-02T13:01:27.170Z,51.585
2022-08-02T13:16:31.296Z,47.67
2022-08-02T13:31:36.620Z,46.659
2022-08-02T13:46:39.292Z,48.015
2022-08-02T14:01:48.045Z,50.028
2022-08-02T14:16:50.335Z,47.964
2022-08-02T14:31:52.583Z,46.921
2022-08-02T14:46:56.182Z,47.692
2022-08-02T15:01:58.524Z,42.937
2022-08-02T15:17:00.878Z,43.767
2022-08-02T15:32:03.149Z,40.698
2022-08-02T15:47:05.335Z,38.6
2022-08-02T16:02:07.684Z,38.711
2022-08-02T16:17:09.954Z,34.854
2022-08-02T16:32:12.515Z,35.418
2022-08-02T16:47:15.198Z,32.602
2022-08-02T17:02:18.343Z,32.592
2022-08-02T17:17:21.747Z,31.124
2022-08-02T17:32:24.143Z,29.518
2022-08-02T17:47:31.657Z,27.975
2022-08-02T18:02:55.139Z,26.474
2022-08-02T18:17:58.001Z,25.677
2022-08-02T18:33:55.896Z,24.766
2022-08-02T18:49:13.300Z,25.086
2022-08-02T19:04:27.592Z,24.344
2022-08-02T19:19:30.853Z,25.735
2022-08-02T19:34:35.694Z,24.939
2022-08-02T19:49:40.431Z,25.593
2022-08-02T20:04:43.219Z,24.595
2022-08-02T20:19:52.548Z,24.321
2022-08-02T20:34:54.750Z,22.967
2022-08-02T20:49:57.101Z,23.873
2022-08-02T21:05:00.117Z,22.422
2022-08-02T21:20:10.082Z,23.386
2022-08-02T21:35:13.271Z,22.363
2022-08-02T21:50:16.308Z,21.644
2022-08-02T22:05:18.962Z,20.749
2022-08-02T22:20:21.526Z,19.827
2022-08-02T22:35:23.871Z,19.073
2022-08-02T22:50:27.098Z,18.942
2022-08-02T23:05:29.380Z,20.018
2022-08-02T23:20:31.614Z,17.91
2022-08-02T23:35:33.885Z,18.661
2022-08-02T23:50:36.084Z,18.447
